首页
METAR-TAF:

METAR-TAF

机场 :

拉纳卡, 塞浦路斯

拉纳卡国际机场

纬度: 34-53N, 经度: 033-38E, 海拔: 2米

当前天气观测

该预报发布于14分钟前的01:30 UTC
风速11节,风向西
温度 9°C
湿度 76%
气压 1000 hPa
能见度10公里或以上
少量云层高于3000英尺
散云层高于5000英尺

METAR: LCLK 190130Z 27011KT 9999 FEW030 SCT050 09/05 Q1000 NOSIG

时间: 03:44 (01:44 UTC)

预报

该预报发布于2小时和14分钟前的23:30 UTC
预报有效从19日的 00点(UTC)到 19日的 24点(UTC)
风速18节,风向北转西北
能见度10公里或以上
散云层高于2500英尺
几率 30% :
短暂存在
从 19日的 00点(UTC)到 19日的 04点(UTC)
能見度: 5000
散云层高于3000英尺, 塔状积云.
阵雨
成为
从 19日的 19点(UTC)到 19日的 22点(UTC)
风速8节,风向西北

TAF: LCLK 182330Z 1900/1924 34018KT 9999 SCT025 PROB30 TEMPO 1900/1904 5000 SHRA SCT030TCU BECMG 1919/1922 32008KT

超过4000个机场的气象观测和天气预报(METAR&TAF报告)。

可查询的气象台以黄色和红色小点在地图上表示。

将鼠标移到小点上方,可查看气象台名称。

然后点击查看天气观测和预报。

如需切换地图:点击带黑十字的绿色按钮放大地图;点击带横线的绿色按钮缩小地图;或者点击绿色箭头查看邻近地区的地图。


METAR-TAF: